sensor_id;sensor_type;location;lat;lon;timestamp;P1;durP1;ratioP1;P2;durP2;ratioP2
5507;SDS011;2776;51.046;6.772;2023-04-16T00:00:22;10.80;;;7.03;;
5507;SDS011;2776;51.046;6.772;2023-04-16T00:02:48;12.57;;;7.47;;
5507;SDS011;2776;51.046;6.772;2023-04-16T00:05:15;10.17;;;6.83;;
5507;SDS011;2776;51.046;6.772;2023-04-16T00:07:42;10.90;;;6.67;;
5507;SDS011;2776;51.046;6.772;2023-04-16T00:10:10;10.10;;;6.67;;
5507;SDS011;2776;51.046;6.772;2023-04-16T00:12:37;12.47;;;7.83;;
5507;SDS011;2776;51.046;6.772;2023-04-16T00:15:04;12.17;;;7.47;;
5507;SDS011;2776;51.046;6.772;2023-04-16T00:17:31;14.73;;;7.67;;
5507;SDS011;2776;51.046;6.772;2023-04-16T00:19:58;14.10;;;8.23;;
5507;SDS011;2776;51.046;6.772;2023-04-16T00:22:24;14.87;;;8.33;;
5507;SDS011;2776;51.046;6.772;2023-04-16T00:24:51;12.07;;;8.40;;
5507;SDS011;2776;51.046;6.772;2023-04-16T00:27:19;12.20;;;7.97;;
5507;SDS011;2776;51.046;6.772;2023-04-16T00:29:46;9.83;;;7.63;;
5507;SDS011;2776;51.046;6.772;2023-04-16T00:32:13;15.87;;;7.93;;
5507;SDS011;2776;51.046;6.772;2023-04-16T00:34:40;11.73;;;7.23;;
5507;SDS011;2776;51.046;6.772;2023-04-16T00:37:07;11.70;;;7.03;;
5507;SDS011;2776;51.046;6.772;2023-04-16T00:39:33;11.73;;;7.80;;
5507;SDS011;2776;51.046;6.772;2023-04-16T00:42:00;11.77;;;7.80;;
5507;SDS011;2776;51.046;6.772;2023-04-16T00:44:28;14.00;;;8.37;;
5507;SDS011;2776;51.046;6.772;2023-04-16T00:46:55;14.10;;;8.53;;
5507;SDS011;2776;51.046;6.772;2023-04-16T00:49:22;14.93;;;8.70;;
5507;SDS011;2776;51.046;6.772;2023-04-16T00:51:49;14.00;;;8.93;;
5507;SDS011;2776;51.046;6.772;2023-04-16T00:54:16;10.87;;;8.10;;
5507;SDS011;2776;51.046;6.772;2023-04-16T00:56:43;12.10;;;7.97;;
5507;SDS011;2776;51.046;6.772;2023-04-16T00:59:10;14.50;;;7.63;;
5507;SDS011;2776;51.046;6.772;2023-04-16T01:01:38;13.47;;;8.10;;
5507;SDS011;2776;51.046;6.772;2023-04-16T01:04:05;15.53;;;8.50;;
5507;SDS011;2776;51.046;6.772;2023-04-16T01:06:32;15.57;;;8.93;;
5507;SDS011;2776;51.046;6.772;2023-04-16T01:08:58;15.13;;;9.27;;
5507;SDS011;2776;51.046;6.772;2023-04-16T01:11:25;14.37;;;8.63;;
5507;SDS011;2776;51.046;6.772;2023-04-16T01:13:52;20.23;;;9.27;;
5507;SDS011;2776;51.046;6.772;2023-04-16T01:16:19;18.50;;;9.17;;
5507;SDS011;2776;51.046;6.772;2023-04-16T01:18:47;16.83;;;9.70;;
5507;SDS011;2776;51.046;6.772;2023-04-16T01:21:15;16.13;;;9.77;;
5507;SDS011;2776;51.046;6.772;2023-04-16T01:23:42;16.13;;;9.53;;
5507;SDS011;2776;51.046;6.772;2023-04-16T01:26:09;18.97;;;9.43;;
5507;SDS011;2776;51.046;6.772;2023-04-16T01:28:35;16.07;;;9.67;;
5507;SDS011;2776;51.046;6.772;2023-04-16T01:31:02;17.53;;;9.63;;
5507;SDS011;2776;51.046;6.772;2023-04-16T01:33:29;14.57;;;8.97;;
5507;SDS011;2776;51.046;6.772;2023-04-16T01:35:56;19.53;;;10.60;;
5507;SDS011;2776;51.046;6.772;2023-04-16T01:38:24;20.13;;;11.37;;
5507;SDS011;2776;51.046;6.772;2023-04-16T01:40:54;16.33;;;10.27;;
5507;SDS011;2776;51.046;6.772;2023-04-16T01:43:21;17.67;;;10.07;;
5507;SDS011;2776;51.046;6.772;2023-04-16T01:45:48;17.60;;;9.90;;
5507;SDS011;2776;51.046;6.772;2023-04-16T01:48:14;16.43;;;10.20;;
5507;SDS011;2776;51.046;6.772;2023-04-16T01:50:42;15.83;;;10.40;;
5507;SDS011;2776;51.046;6.772;2023-04-16T01:53:08;18.00;;;10.40;;
5507;SDS011;2776;51.046;6.772;2023-04-16T01:55:36;19.27;;;10.47;;
5507;SDS011;2776;51.046;6.772;2023-04-16T01:58:03;21.60;;;11.83;;
5507;SDS011;2776;51.046;6.772;2023-04-16T02:00:32;16.10;;;10.33;;
5507;SDS011;2776;51.046;6.772;2023-04-16T02:02:59;17.23;;;12.13;;
5507;SDS011;2776;51.046;6.772;2023-04-16T02:05:26;18.07;;;11.83;;
5507;SDS011;2776;51.046;6.772;2023-04-16T02:07:53;20.67;;;11.77;;
5507;SDS011;2776;51.046;6.772;2023-04-16T02:10:20;20.23;;;12.13;;
5507;SDS011;2776;51.046;6.772;2023-04-16T02:12:48;13.80;;;10.63;;
5507;SDS011;2776;51.046;6.772;2023-04-16T02:15:15;16.03;;;11.73;;
5507;SDS011;2776;51.046;6.772;2023-04-16T02:17:42;18.17;;;11.27;;
5507;SDS011;2776;51.046;6.772;2023-04-16T02:20:10;21.30;;;11.97;;
5507;SDS011;2776;51.046;6.772;2023-04-16T02:22:37;16.40;;;11.07;;
5507;SDS011;2776;51.046;6.772;2023-04-16T02:25:04;16.70;;;12.60;;
5507;SDS011;2776;51.046;6.772;2023-04-16T02:27:31;18.43;;;11.47;;
5507;SDS011;2776;51.046;6.772;2023-04-16T02:29:59;19.33;;;12.07;;
5507;SDS011;2776;51.046;6.772;2023-04-16T02:32:28;22.23;;;12.47;;
5507;SDS011;2776;51.046;6.772;2023-04-16T02:34:55;21.47;;;12.20;;
5507;SDS011;2776;51.046;6.772;2023-04-16T02:37:22;24.40;;;13.47;;
5507;SDS011;2776;51.046;6.772;2023-04-16T02:39:49;20.00;;;11.97;;
5507;SDS011;2776;51.046;6.772;2023-04-16T02:42:17;18.00;;;12.63;;
5507;SDS011;2776;51.046;6.772;2023-04-16T02:44:43;18.43;;;11.97;;
5507;SDS011;2776;51.046;6.772;2023-04-16T02:47:12;21.63;;;12.57;;
5507;SDS011;2776;51.046;6.772;2023-04-16T02:49:38;19.90;;;11.87;;
5507;SDS011;2776;51.046;6.772;2023-04-16T02:52:05;21.30;;;13.30;;
5507;SDS011;2776;51.046;6.772;2023-04-16T02:54:32;22.13;;;13.73;;
5507;SDS011;2776;51.046;6.772;2023-04-16T02:56:58;21.57;;;12.30;;
5507;SDS011;2776;51.046;6.772;2023-04-16T02:59:26;22.20;;;13.13;;
5507;SDS011;2776;51.046;6.772;2023-04-16T03:01:53;22.63;;;13.07;;
5507;SDS011;2776;51.046;6.772;2023-04-16T03:04:21;28.27;;;14.60;;
5507;SDS011;2776;51.046;6.772;2023-04-16T03:06:47;19.73;;;12.60;;
5507;SDS011;2776;51.046;6.772;2023-04-16T03:09:14;20.27;;;13.40;;
5507;SDS011;2776;51.046;6.772;2023-04-16T03:11:41;21.30;;;13.47;;
5507;SDS011;2776;51.046;6.772;2023-04-16T03:14:08;24.47;;;13.67;;
5507;SDS011;2776;51.046;6.772;2023-04-16T03:16:34;20.83;;;13.97;;
5507;SDS011;2776;51.046;6.772;2023-04-16T03:19:01;23.57;;;13.27;;
5507;SDS011;2776;51.046;6.772;2023-04-16T03:21:29;18.20;;;13.07;;
5507;SDS011;2776;51.046;6.772;2023-04-16T03:23:56;24.87;;;14.20;;
5507;SDS011;2776;51.046;6.772;2023-04-16T03:26:23;27.73;;;15.03;;
5507;SDS011;2776;51.046;6.772;2023-04-16T03:28:49;21.63;;;13.77;;
5507;SDS011;2776;51.046;6.772;2023-04-16T03:31:16;28.13;;;15.67;;
5507;SDS011;2776;51.046;6.772;2023-04-16T03:33:43;27.03;;;15.03;;
5507;SDS011;2776;51.046;6.772;2023-04-16T03:36:09;24.77;;;14.17;;
5507;SDS011;2776;51.046;6.772;2023-04-16T03:38:37;26.00;;;15.60;;
5507;SDS011;2776;51.046;6.772;2023-04-16T03:41:04;27.70;;;15.00;;
5507;SDS011;2776;51.046;6.772;2023-04-16T03:43:31;26.10;;;14.23;;
5507;SDS011;2776;51.046;6.772;2023-04-16T03:45:58;26.83;;;15.83;;
5507;SDS011;2776;51.046;6.772;2023-04-16T03:48:24;23.30;;;15.20;;
5507;SDS011;2776;51.046;6.772;2023-04-16T03:50:51;28.03;;;15.33;;
5507;SDS011;2776;51.046;6.772;2023-04-16T03:53:18;24.70;;;15.83;;
5507;SDS011;2776;51.046;6.772;2023-04-16T03:55:48;27.57;;;15.60;;
5507;SDS011;2776;51.046;6.772;2023-04-16T03:58:15;25.27;;;15.17;;
5507;SDS011;2776;51.046;6.772;2023-04-16T04:00:42;27.03;;;15.67;;
5507;SDS011;2776;51.046;6.772;2023-04-16T04:03:08;25.90;;;15.10;;
5507;SDS011;2776;51.046;6.772;2023-04-16T04:05:35;23.57;;;15.53;;
5507;SDS011;2776;51.046;6.772;2023-04-16T04:08:02;26.97;;;15.63;;
5507;SDS011;2776;51.046;6.772;2023-04-16T04:10:30;27.70;;;15.37;;
5507;SDS011;2776;51.046;6.772;2023-04-16T04:12:58;27.23;;;15.97;;
5507;SDS011;2776;51.046;6.772;2023-04-16T04:15:25;22.30;;;15.10;;
5507;SDS011;2776;51.046;6.772;2023-04-16T04:17:52;30.53;;;16.87;;
5507;SDS011;2776;51.046;6.772;2023-04-16T04:20:18;29.80;;;17.00;;
5507;SDS011;2776;51.046;6.772;2023-04-16T04:22:45;27.23;;;16.57;;
5507;SDS011;2776;51.046;6.772;2023-04-16T04:25:12;29.10;;;16.83;;
5507;SDS011;2776;51.046;6.772;2023-04-16T04:27:39;31.20;;;17.13;;
5507;SDS011;2776;51.046;6.772;2023-04-16T04:30:08;29.10;;;16.93;;
5507;SDS011;2776;51.046;6.772;2023-04-16T04:32:35;29.30;;;17.67;;
5507;SDS011;2776;51.046;6.772;2023-04-16T04:35:02;28.07;;;17.27;;
5507;SDS011;2776;51.046;6.772;2023-04-16T04:37:29;31.77;;;17.00;;
5507;SDS011;2776;51.046;6.772;2023-04-16T04:39:55;30.40;;;18.07;;
5507;SDS011;2776;51.046;6.772;2023-04-16T04:42:22;29.37;;;17.00;;
5507;SDS011;2776;51.046;6.772;2023-04-16T04:44:50;28.00;;;17.10;;
5507;SDS011;2776;51.046;6.772;2023-04-16T04:47:18;25.17;;;16.07;;
5507;SDS011;2776;51.046;6.772;2023-04-16T04:49:44;34.67;;;17.93;;
5507;SDS011;2776;51.046;6.772;2023-04-16T04:52:11;30.77;;;17.20;;
5507;SDS011;2776;51.046;6.772;2023-04-16T04:54:38;32.10;;;18.10;;
5507;SDS011;2776;51.046;6.772;2023-04-16T04:57:06;30.67;;;18.67;;
5507;SDS011;2776;51.046;6.772;2023-04-16T04:59:33;25.97;;;17.07;;
5507;SDS011;2776;51.046;6.772;2023-04-16T05:01:59;33.67;;;18.33;;
5507;SDS011;2776;51.046;6.772;2023-04-16T05:04:28;27.90;;;17.53;;
5507;SDS011;2776;51.046;6.772;2023-04-16T05:06:55;28.60;;;17.77;;
5507;SDS011;2776;51.046;6.772;2023-04-16T05:09:22;28.33;;;17.70;;
5507;SDS011;2776;51.046;6.772;2023-04-16T05:11:49;28.10;;;18.87;;
5507;SDS011;2776;51.046;6.772;2023-04-16T05:14:15;31.07;;;19.17;;
5507;SDS011;2776;51.046;6.772;2023-04-16T05:16:42;28.60;;;17.87;;
5507;SDS011;2776;51.046;6.772;2023-04-16T05:19:09;27.13;;;17.03;;
5507;SDS011;2776;51.046;6.772;2023-04-16T05:21:37;38.17;;;17.50;;
5507;SDS011;2776;51.046;6.772;2023-04-16T05:24:05;31.10;;;18.10;;
5507;SDS011;2776;51.046;6.772;2023-04-16T05:26:31;33.53;;;22.53;;
5507;SDS011;2776;51.046;6.772;2023-04-16T05:28:58;27.23;;;17.47;;
5507;SDS011;2776;51.046;6.772;2023-04-16T05:31:25;34.07;;;19.07;;
5507;SDS011;2776;51.046;6.772;2023-04-16T05:33:52;29.63;;;18.80;;
5507;SDS011;2776;51.046;6.772;2023-04-16T05:36:18;30.37;;;18.87;;
5507;SDS011;2776;51.046;6.772;2023-04-16T05:38:46;27.30;;;17.73;;
5507;SDS011;2776;51.046;6.772;2023-04-16T05:41:13;32.03;;;19.13;;
5507;SDS011;2776;51.046;6.772;2023-04-16T05:43:40;26.23;;;18.07;;
5507;SDS011;2776;51.046;6.772;2023-04-16T05:46:06;30.97;;;17.63;;
5507;SDS011;2776;51.046;6.772;2023-04-16T05:48:33;28.57;;;18.43;;
5507;SDS011;2776;51.046;6.772;2023-04-16T05:51:00;33.77;;;18.83;;
5507;SDS011;2776;51.046;6.772;2023-04-16T05:53:27;33.90;;;18.57;;
5507;SDS011;2776;51.046;6.772;2023-04-16T05:55:55;32.00;;;18.10;;
5507;SDS011;2776;51.046;6.772;2023-04-16T05:58:22;28.63;;;18.27;;
5507;SDS011;2776;51.046;6.772;2023-04-16T06:00:48;27.90;;;18.63;;
5507;SDS011;2776;51.046;6.772;2023-04-16T06:03:15;30.43;;;18.60;;
5507;SDS011;2776;51.046;6.772;2023-04-16T06:05:42;31.77;;;19.63;;
5507;SDS011;2776;51.046;6.772;2023-04-16T06:08:09;34.67;;;18.63;;
5507;SDS011;2776;51.046;6.772;2023-04-16T06:10:36;31.20;;;18.20;;
5507;SDS011;2776;51.046;6.772;2023-04-16T06:13:04;32.03;;;17.97;;
5507;SDS011;2776;51.046;6.772;2023-04-16T06:15:31;29.40;;;18.83;;
5507;SDS011;2776;51.046;6.772;2023-04-16T06:17:58;32.17;;;18.30;;
5507;SDS011;2776;51.046;6.772;2023-04-16T06:20:24;36.53;;;18.43;;
5507;SDS011;2776;51.046;6.772;2023-04-16T06:22:51;28.33;;;17.30;;
5507;SDS011;2776;51.046;6.772;2023-04-16T06:25:18;34.60;;;18.90;;
5507;SDS011;2776;51.046;6.772;2023-04-16T06:27:44;31.10;;;17.73;;
5507;SDS011;2776;51.046;6.772;2023-04-16T06:30:13;29.13;;;18.40;;
5507;SDS011;2776;51.046;6.772;2023-04-16T06:32:41;27.77;;;18.13;;
5507;SDS011;2776;51.046;6.772;2023-04-16T06:35:08;26.57;;;17.17;;
5507;SDS011;2776;51.046;6.772;2023-04-16T06:37:35;29.63;;;16.77;;
5507;SDS011;2776;51.046;6.772;2023-04-16T06:40:02;27.83;;;17.47;;
5507;SDS011;2776;51.046;6.772;2023-04-16T06:42:29;34.17;;;22.07;;
5507;SDS011;2776;51.046;6.772;2023-04-16T06:44:56;28.47;;;18.47;;
5507;SDS011;2776;51.046;6.772;2023-04-16T06:47:24;26.33;;;17.17;;
5507;SDS011;2776;51.046;6.772;2023-04-16T06:49:51;27.23;;;17.33;;
5507;SDS011;2776;51.046;6.772;2023-04-16T06:52:18;26.37;;;17.20;;
5507;SDS011;2776;51.046;6.772;2023-04-16T06:54:44;25.30;;;16.60;;
5507;SDS011;2776;51.046;6.772;2023-04-16T06:57:11;24.87;;;16.40;;
5507;SDS011;2776;51.046;6.772;2023-04-16T06:59:38;26.13;;;16.53;;
5507;SDS011;2776;51.046;6.772;2023-04-16T07:02:05;32.73;;;17.23;;
5507;SDS011;2776;51.046;6.772;2023-04-16T07:04:35;22.70;;;15.23;;
5507;SDS011;2776;51.046;6.772;2023-04-16T07:07:01;27.60;;;17.30;;
5507;SDS011;2776;51.046;6.772;2023-04-16T07:09:28;24.37;;;17.27;;
5507;SDS011;2776;51.046;6.772;2023-04-16T07:11:55;25.87;;;16.93;;
5507;SDS011;2776;51.046;6.772;2023-04-16T07:14:22;24.10;;;13.90;;
5507;SDS011;2776;51.046;6.772;2023-04-16T07:16:49;24.47;;;15.70;;
5507;SDS011;2776;51.046;6.772;2023-04-16T07:19:15;19.67;;;13.97;;
5507;SDS011;2776;51.046;6.772;2023-04-16T07:21:43;23.57;;;15.70;;
5507;SDS011;2776;51.046;6.772;2023-04-16T07:24:10;20.50;;;14.83;;
5507;SDS011;2776;51.046;6.772;2023-04-16T07:26:37;25.93;;;15.17;;
5507;SDS011;2776;51.046;6.772;2023-04-16T07:29:04;20.03;;;14.27;;
5507;SDS011;2776;51.046;6.772;2023-04-16T07:31:31;22.73;;;14.83;;
5507;SDS011;2776;51.046;6.772;2023-04-16T07:33:57;23.00;;;14.97;;
5507;SDS011;2776;51.046;6.772;2023-04-16T07:36:25;24.17;;;15.73;;
5507;SDS011;2776;51.046;6.772;2023-04-16T07:38:54;25.03;;;15.90;;
5507;SDS011;2776;51.046;6.772;2023-04-16T07:41:21;28.47;;;16.27;;
5507;SDS011;2776;51.046;6.772;2023-04-16T07:43:48;37.80;;;20.50;;
5507;SDS011;2776;51.046;6.772;2023-04-16T07:46:15;36.07;;;23.23;;
5507;SDS011;2776;51.046;6.772;2023-04-16T07:48:41;39.87;;;24.43;;
5507;SDS011;2776;51.046;6.772;2023-04-16T07:51:08;46.60;;;27.27;;
5507;SDS011;2776;51.046;6.772;2023-04-16T07:53:35;47.77;;;27.53;;
5507;SDS011;2776;51.046;6.772;2023-04-16T07:56:03;44.80;;;27.40;;
5507;SDS011;2776;51.046;6.772;2023-04-16T07:58:30;42.20;;;26.70;;
5507;SDS011;2776;51.046;6.772;2023-04-16T08:00:57;47.87;;;29.67;;
5507;SDS011;2776;51.046;6.772;2023-04-16T08:03:24;46.63;;;29.57;;
5507;SDS011;2776;51.046;6.772;2023-04-16T08:05:50;52.80;;;31.07;;
5507;SDS011;2776;51.046;6.772;2023-04-16T08:08:17;45.00;;;29.90;;
5507;SDS011;2776;51.046;6.772;2023-04-16T08:10:44;44.17;;;29.30;;
5507;SDS011;2776;51.046;6.772;2023-04-16T08:13:12;43.60;;;28.23;;
5507;SDS011;2776;51.046;6.772;2023-04-16T08:15:39;44.40;;;27.77;;
5507;SDS011;2776;51.046;6.772;2023-04-16T08:18:06;42.70;;;27.67;;
5507;SDS011;2776;51.046;6.772;2023-04-16T08:20:36;45.13;;;28.93;;
5507;SDS011;2776;51.046;6.772;2023-04-16T08:23:04;50.93;;;33.17;;
5507;SDS011;2776;51.046;6.772;2023-04-16T08:25:30;54.07;;;36.97;;
5507;SDS011;2776;51.046;6.772;2023-04-16T08:27:57;56.20;;;37.57;;
5507;SDS011;2776;51.046;6.772;2023-04-16T08:30:25;60.47;;;38.87;;
5507;SDS011;2776;51.046;6.772;2023-04-16T08:32:52;58.63;;;37.80;;
5507;SDS011;2776;51.046;6.772;2023-04-16T08:35:19;53.17;;;35.47;;
5507;SDS011;2776;51.046;6.772;2023-04-16T08:37:46;54.80;;;37.07;;
5507;SDS011;2776;51.046;6.772;2023-04-16T08:40:12;48.53;;;32.97;;
5507;SDS011;2776;51.046;6.772;2023-04-16T08:42:40;42.23;;;28.87;;
5507;SDS011;2776;51.046;6.772;2023-04-16T08:45:12;37.97;;;28.17;;
5507;SDS011;2776;51.046;6.772;2023-04-16T08:47:42;38.23;;;27.07;;
5507;SDS011;2776;51.046;6.772;2023-04-16T08:50:12;36.83;;;26.13;;
5507;SDS011;2776;51.046;6.772;2023-04-16T08:52:42;36.30;;;26.83;;
5507;SDS011;2776;51.046;6.772;2023-04-16T08:55:15;33.97;;;25.97;;
5507;SDS011;2776;51.046;6.772;2023-04-16T08:57:46;31.77;;;25.27;;
5507;SDS011;2776;51.046;6.772;2023-04-16T09:00:14;34.80;;;24.20;;
5507;SDS011;2776;51.046;6.772;2023-04-16T09:02:43;36.67;;;24.03;;
5507;SDS011;2776;51.046;6.772;2023-04-16T09:05:11;33.27;;;23.17;;
5507;SDS011;2776;51.046;6.772;2023-04-16T09:07:41;33.10;;;24.03;;
5507;SDS011;2776;51.046;6.772;2023-04-16T09:10:08;33.77;;;25.30;;
5507;SDS011;2776;51.046;6.772;2023-04-16T09:12:36;30.40;;;22.63;;
5507;SDS011;2776;51.046;6.772;2023-04-16T09:15:04;35.43;;;25.30;;
5507;SDS011;2776;51.046;6.772;2023-04-16T09:17:33;32.90;;;24.23;;
5507;SDS011;2776;51.046;6.772;2023-04-16T09:20:01;30.90;;;22.90;;
5507;SDS011;2776;51.046;6.772;2023-04-16T09:22:29;28.17;;;21.60;;
5507;SDS011;2776;51.046;6.772;2023-04-16T09:24:56;27.80;;;20.67;;
5507;SDS011;2776;51.046;6.772;2023-04-16T09:27:23;27.30;;;20.93;;
5507;SDS011;2776;51.046;6.772;2023-04-16T09:29:51;30.03;;;21.77;;
5507;SDS011;2776;51.046;6.772;2023-04-16T09:32:19;24.30;;;19.50;;
5507;SDS011;2776;51.046;6.772;2023-04-16T09:34:55;30.10;;;19.30;;
5507;SDS011;2776;51.046;6.772;2023-04-16T09:37:24;27.50;;;19.70;;
5507;SDS011;2776;51.046;6.772;2023-04-16T09:39:51;26.40;;;19.73;;
5507;SDS011;2776;51.046;6.772;2023-04-16T09:42:20;25.73;;;20.93;;
5507;SDS011;2776;51.046;6.772;2023-04-16T09:44:48;30.03;;;23.33;;
5507;SDS011;2776;51.046;6.772;2023-04-16T09:47:15;28.03;;;21.90;;
5507;SDS011;2776;51.046;6.772;2023-04-16T09:49:42;29.43;;;24.00;;
5507;SDS011;2776;51.046;6.772;2023-04-16T09:52:11;34.27;;;25.53;;
5507;SDS011;2776;51.046;6.772;2023-04-16T09:54:45;33.03;;;25.23;;
5507;SDS011;2776;51.046;6.772;2023-04-16T09:57:13;32.70;;;25.30;;
5507;SDS011;2776;51.046;6.772;2023-04-16T09:59:40;40.97;;;31.93;;
5507;SDS011;2776;51.046;6.772;2023-04-16T10:02:07;30.67;;;23.20;;
5507;SDS011;2776;51.046;6.772;2023-04-16T10:04:43;31.93;;;23.33;;
5507;SDS011;2776;51.046;6.772;2023-04-16T10:07:13;35.43;;;25.20;;
5507;SDS011;2776;51.046;6.772;2023-04-16T10:09:40;30.93;;;24.00;;
5507;SDS011;2776;51.046;6.772;2023-04-16T10:12:08;32.57;;;22.13;;
5507;SDS011;2776;51.046;6.772;2023-04-16T10:14:36;27.93;;;22.67;;
5507;SDS011;2776;51.046;6.772;2023-04-16T10:17:03;28.20;;;21.77;;
5507;SDS011;2776;51.046;6.772;2023-04-16T10:19:31;30.37;;;21.67;;
5507;SDS011;2776;51.046;6.772;2023-04-16T10:21:59;29.30;;;22.73;;
5507;SDS011;2776;51.046;6.772;2023-04-16T10:24:27;28.73;;;22.90;;
5507;SDS011;2776;51.046;6.772;2023-04-16T10:26:54;30.10;;;22.80;;
5507;SDS011;2776;51.046;6.772;2023-04-16T10:29:22;26.37;;;21.83;;
5507;SDS011;2776;51.046;6.772;2023-04-16T10:31:50;25.77;;;21.20;;
5507;SDS011;2776;51.046;6.772;2023-04-16T10:34:18;26.50;;;21.80;;
5507;SDS011;2776;51.046;6.772;2023-04-16T10:36:47;31.53;;;23.90;;
5507;SDS011;2776;51.046;6.772;2023-04-16T10:39:16;28.63;;;23.10;;
5507;SDS011;2776;51.046;6.772;2023-04-16T10:41:44;27.03;;;21.50;;
5507;SDS011;2776;51.046;6.772;2023-04-16T10:44:10;27.27;;;21.33;;
5507;SDS011;2776;51.046;6.772;2023-04-16T10:46:39;27.67;;;22.03;;
5507;SDS011;2776;51.046;6.772;2023-04-16T10:49:13;25.10;;;22.10;;
5507;SDS011;2776;51.046;6.772;2023-04-16T10:51:41;29.43;;;22.73;;
5507;SDS011;2776;51.046;6.772;2023-04-16T10:54:22;27.43;;;23.30;;
5507;SDS011;2776;51.046;6.772;2023-04-16T10:56:51;29.93;;;22.57;;
5507;SDS011;2776;51.046;6.772;2023-04-16T10:59:20;26.97;;;24.07;;
5507;SDS011;2776;51.046;6.772;2023-04-16T11:01:49;28.50;;;23.00;;
5507;SDS011;2776;51.046;6.772;2023-04-16T11:04:33;25.83;;;22.00;;
5507;SDS011;2776;51.046;6.772;2023-04-16T11:07:05;27.63;;;22.33;;
5507;SDS011;2776;51.046;6.772;2023-04-16T11:12:22;30.80;;;24.77;;
5507;SDS011;2776;51.046;6.772;2023-04-16T11:14:52;25.30;;;19.87;;
5507;SDS011;2776;51.046;6.772;2023-04-16T11:17:21;37.67;;;28.00;;
5507;SDS011;2776;51.046;6.772;2023-04-16T11:19:48;28.03;;;22.10;;
5507;SDS011;2776;51.046;6.772;2023-04-16T11:22:16;23.67;;;20.23;;
5507;SDS011;2776;51.046;6.772;2023-04-16T11:24:43;26.97;;;21.47;;
5507;SDS011;2776;51.046;6.772;2023-04-16T11:27:11;24.80;;;20.90;;
5507;SDS011;2776;51.046;6.772;2023-04-16T11:29:39;23.10;;;20.60;;
5507;SDS011;2776;51.046;6.772;2023-04-16T11:32:06;23.53;;;20.67;;
5507;SDS011;2776;51.046;6.772;2023-04-16T11:34:34;24.27;;;20.07;;
5507;SDS011;2776;51.046;6.772;2023-04-16T11:37:09;24.53;;;20.33;;
5507;SDS011;2776;51.046;6.772;2023-04-16T11:39:46;22.17;;;19.80;;
5507;SDS011;2776;51.046;6.772;2023-04-16T11:42:17;22.47;;;20.00;;
5507;SDS011;2776;51.046;6.772;2023-04-16T11:44:46;25.80;;;19.87;;
5507;SDS011;2776;51.046;6.772;2023-04-16T11:47:17;22.33;;;19.73;;
5507;SDS011;2776;51.046;6.772;2023-04-16T11:49:45;26.83;;;20.07;;
5507;SDS011;2776;51.046;6.772;2023-04-16T11:52:11;22.90;;;18.97;;
5507;SDS011;2776;51.046;6.772;2023-04-16T11:54:38;25.07;;;19.37;;
5507;SDS011;2776;51.046;6.772;2023-04-16T11:57:05;20.67;;;18.47;;
5507;SDS011;2776;51.046;6.772;2023-04-16T11:59:32;22.73;;;18.50;;
5507;SDS011;2776;51.046;6.772;2023-04-16T12:02:01;22.00;;;18.20;;
5507;SDS011;2776;51.046;6.772;2023-04-16T12:04:27;21.37;;;18.47;;
5507;SDS011;2776;51.046;6.772;2023-04-16T12:07:05;21.47;;;18.67;;
5507;SDS011;2776;51.046;6.772;2023-04-16T12:09:33;20.20;;;17.43;;
5507;SDS011;2776;51.046;6.772;2023-04-16T12:12:00;20.73;;;17.83;;
5507;SDS011;2776;51.046;6.772;2023-04-16T12:14:27;21.07;;;17.87;;
5507;SDS011;2776;51.046;6.772;2023-04-16T12:16:54;19.43;;;17.30;;
5507;SDS011;2776;51.046;6.772;2023-04-16T12:19:22;19.97;;;17.73;;
5507;SDS011;2776;51.046;6.772;2023-04-16T12:21:49;22.57;;;18.83;;
5507;SDS011;2776;51.046;6.772;2023-04-16T12:24:17;22.43;;;18.53;;
5507;SDS011;2776;51.046;6.772;2023-04-16T12:26:47;17.37;;;15.47;;
5507;SDS011;2776;51.046;6.772;2023-04-16T12:29:20;18.50;;;16.17;;
5507;SDS011;2776;51.046;6.772;2023-04-16T12:31:49;19.87;;;17.20;;
5507;SDS011;2776;51.046;6.772;2023-04-16T12:34:16;19.17;;;16.83;;
5507;SDS011;2776;51.046;6.772;2023-04-16T12:36:44;19.23;;;15.90;;
5507;SDS011;2776;51.046;6.772;2023-04-16T12:39:12;18.03;;;16.00;;
5507;SDS011;2776;51.046;6.772;2023-04-16T12:41:41;17.37;;;15.50;;
5507;SDS011;2776;51.046;6.772;2023-04-16T12:44:09;17.90;;;15.57;;
5507;SDS011;2776;51.046;6.772;2023-04-16T12:46:37;16.67;;;14.87;;
5507;SDS011;2776;51.046;6.772;2023-04-16T12:49:05;16.97;;;15.23;;
5507;SDS011;2776;51.046;6.772;2023-04-16T12:51:32;18.07;;;15.77;;
5507;SDS011;2776;51.046;6.772;2023-04-16T12:53:59;17.07;;;15.33;;
5507;SDS011;2776;51.046;6.772;2023-04-16T12:56:26;15.27;;;13.43;;
5507;SDS011;2776;51.046;6.772;2023-04-16T12:58:54;15.97;;;14.27;;
5507;SDS011;2776;51.046;6.772;2023-04-16T13:01:21;15.90;;;14.30;;
5507;SDS011;2776;51.046;6.772;2023-04-16T13:03:48;16.50;;;14.80;;
5507;SDS011;2776;51.046;6.772;2023-04-16T13:06:15;17.17;;;14.23;;
5507;SDS011;2776;51.046;6.772;2023-04-16T13:08:43;15.03;;;13.53;;
5507;SDS011;2776;51.046;6.772;2023-04-16T13:11:10;15.60;;;12.40;;
5507;SDS011;2776;51.046;6.772;2023-04-16T13:13:37;14.17;;;11.90;;
5507;SDS011;2776;51.046;6.772;2023-04-16T13:16:05;13.40;;;12.00;;
5507;SDS011;2776;51.046;6.772;2023-04-16T13:18:32;13.73;;;11.57;;
5507;SDS011;2776;51.046;6.772;2023-04-16T13:21:18;13.00;;;11.70;;
5507;SDS011;2776;51.046;6.772;2023-04-16T13:24:02;13.10;;;11.53;;
5507;SDS011;2776;51.046;6.772;2023-04-16T13:26:29;12.40;;;11.10;;
5507;SDS011;2776;51.046;6.772;2023-04-16T13:28:56;11.90;;;10.70;;
5507;SDS011;2776;51.046;6.772;2023-04-16T13:31:24;15.90;;;12.40;;
5507;SDS011;2776;51.046;6.772;2023-04-16T13:33:51;12.93;;;11.10;;
5507;SDS011;2776;51.046;6.772;2023-04-16T13:36:17;13.47;;;10.93;;
5507;SDS011;2776;51.046;6.772;2023-04-16T13:38:44;12.70;;;9.90;;
5507;SDS011;2776;51.046;6.772;2023-04-16T13:41:11;11.70;;;10.03;;
5507;SDS011;2776;51.046;6.772;2023-04-16T13:43:38;12.17;;;10.97;;
5507;SDS011;2776;51.046;6.772;2023-04-16T13:46:05;13.73;;;10.60;;
5507;SDS011;2776;51.046;6.772;2023-04-16T13:48:33;12.40;;;11.10;;
5507;SDS011;2776;51.046;6.772;2023-04-16T13:50:59;13.17;;;11.77;;
5507;SDS011;2776;51.046;6.772;2023-04-16T13:53:28;12.90;;;11.73;;
5507;SDS011;2776;51.046;6.772;2023-04-16T13:55:55;14.47;;;12.80;;
5507;SDS011;2776;51.046;6.772;2023-04-16T13:58:21;17.47;;;13.40;;
5507;SDS011;2776;51.046;6.772;2023-04-16T14:00:48;14.03;;;12.53;;
5507;SDS011;2776;51.046;6.772;2023-04-16T14:03:15;15.60;;;11.80;;
5507;SDS011;2776;51.046;6.772;2023-04-16T14:05:43;14.90;;;12.93;;
5507;SDS011;2776;51.046;6.772;2023-04-16T14:08:10;15.60;;;13.20;;
5507;SDS011;2776;51.046;6.772;2023-04-16T14:10:38;18.33;;;13.30;;
5507;SDS011;2776;51.046;6.772;2023-04-16T14:13:05;15.50;;;13.87;;
5507;SDS011;2776;51.046;6.772;2023-04-16T14:15:32;17.73;;;14.17;;
5507;SDS011;2776;51.046;6.772;2023-04-16T14:17:59;13.80;;;12.50;;
5507;SDS011;2776;51.046;6.772;2023-04-16T14:20:27;14.93;;;13.37;;
5507;SDS011;2776;51.046;6.772;2023-04-16T14:22:55;14.03;;;11.80;;
5507;SDS011;2776;51.046;6.772;2023-04-16T14:25:22;14.13;;;12.67;;
5507;SDS011;2776;51.046;6.772;2023-04-16T14:27:49;15.90;;;14.23;;
5507;SDS011;2776;51.046;6.772;2023-04-16T14:30:16;15.70;;;13.83;;
5507;SDS011;2776;51.046;6.772;2023-04-16T14:32:43;17.27;;;14.13;;
5507;SDS011;2776;51.046;6.772;2023-04-16T14:35:09;16.83;;;13.80;;
5507;SDS011;2776;51.046;6.772;2023-04-16T14:37:36;16.40;;;14.77;;
5507;SDS011;2776;51.046;6.772;2023-04-16T14:40:05;19.37;;;14.93;;
5507;SDS011;2776;51.046;6.772;2023-04-16T14:42:33;15.33;;;13.73;;
5507;SDS011;2776;51.046;6.772;2023-04-16T14:45:01;15.67;;;13.30;;
5507;SDS011;2776;51.046;6.772;2023-04-16T14:47:30;13.43;;;12.03;;
5507;SDS011;2776;51.046;6.772;2023-04-16T14:49:57;14.90;;;12.33;;
5507;SDS011;2776;51.046;6.772;2023-04-16T14:52:23;13.33;;;11.87;;
5507;SDS011;2776;51.046;6.772;2023-04-16T14:54:51;14.20;;;12.70;;